Time;durP1;ratioP1;P1;durP2;ratioP2;P2;SDS_P1;SDS_P2;PMS_P1;PMS_P2;Temp;Humidity;BMP_temperature;BMP_pressure;BME280_temperature;BME280_humidity;BME280_pressure;Samples;Min_cycle;Max_cycle;Signal;HPM_P1;HPM_P2
2023/11/12 00:02:18;;;;;;;23.80;14.40;;;;;;;11.12;83.75;97137.48;106894;1263;68080;-35
2023/11/12 00:04:48;;;;;;;24.70;15.60;;;;;;;11.08;83.88;97134.91;106885;1262;72729;-35
2023/11/12 00:07:16;;;;;;;22.30;14.60;;;;;;;11.06;84.11;97129.75;106910;1263;60146;-35
2023/11/12 00:09:44;;;;;;;19.30;14.40;;;;;;;11.03;84.15;97125.84;106889;1266;59631;-35
2023/11/12 00:12:12;;;;;;;19.10;13.60;;;;;;;11.05;84.10;97125.35;106850;1264;73535;-36
2023/11/12 00:14:44;;;;;;;18.30;13.70;;;;;;;11.08;83.87;97125.05;106892;1263;66624;-35
2023/11/12 00:17:13;;;;;;;17.70;12.90;;;;;;;11.07;83.85;97118.73;106868;1263;71401;-35
2023/11/12 00:19:41;;;;;;;20.60;13.80;;;;;;;11.05;84.02;97115.20;106874;1264;60100;-35
2023/11/12 00:22:09;;;;;;;17.60;11.40;;;;;;;11.03;84.02;97112.30;106815;1263;59212;-35
2023/11/12 00:24:37;;;;;;;15.90;12.00;;;;;;;11.06;83.81;97109.06;106903;1263;73124;-35
2023/11/12 00:27:05;;;;;;;14.20;10.70;;;;;;;11.10;83.65;97103.48;106880;1263;67747;-35
2023/11/12 00:29:33;;;;;;;16.50;11.30;;;;;;;11.08;83.42;97103.15;106862;1263;72850;-35
2023/11/12 00:32:03;;;;;;;15.50;11.50;;;;;;;11.02;83.50;97101.23;106853;1263;59699;-35
2023/11/12 00:34:31;;;;;;;16.50;10.40;;;;;;;10.97;83.59;97095.68;106803;1263;59992;-35
2023/11/12 00:36:58;;;;;;;14.30;10.50;;;;;;;10.95;83.27;97093.86;106735;1263;71715;-35
2023/11/12 00:39:27;;;;;;;16.10;10.50;;;;;;;10.97;83.40;97092.36;106726;1264;66425;-35
2023/11/12 00:41:54;;;;;;;15.00;10.70;;;;;;;10.95;83.70;97086.34;106741;1263;72341;-35
2023/11/12 00:44:23;;;;;;;11.40;9.30;;;;;;;10.92;83.75;97085.16;106857;1263;60550;-35
2023/11/12 00:46:51;;;;;;;12.60;9.70;;;;;;;10.90;83.86;97081.79;106822;1263;60796;-35
2023/11/12 00:49:18;;;;;;;11.40;8.40;;;;;;;10.93;83.68;97079.66;106792;1263;72969;-35
2023/11/12 00:51:46;;;;;;;14.00;9.00;;;;;;;10.91;83.38;97075.11;106762;1262;66675;-35
2023/11/12 00:54:13;;;;;;;11.50;7.60;;;;;;;10.87;83.68;97076.20;106832;1263;72670;-35
2023/11/12 00:56:41;;;;;;;8.20;7.20;;;;;;;10.82;83.53;97069.92;106816;1263;60454;-35
2023/11/12 00:59:08;;;;;;;7.10;5.80;;;;;;;10.75;83.74;97069.77;106859;1263;60066;-35
2023/11/12 01:01:36;;;;;;;7.20;5.60;;;;;;;10.70;83.36;97064.21;106716;1263;73883;-35
2023/11/12 01:04:04;;;;;;;7.30;5.90;;;;;;;10.62;83.28;97062.34;106769;1262;66318;-35
2023/11/12 01:06:33;;;;;;;7.00;5.40;;;;;;;10.52;83.56;97063.52;106859;1262;70826;-35
2023/11/12 01:09:02;;;;;;;7.80;6.40;;;;;;;10.43;84.16;97060.44;106794;1263;59549;-35
2023/11/12 01:11:29;;;;;;;6.90;6.00;;;;;;;10.40;84.57;97055.92;106798;1263;60287;-35
2023/11/12 01:13:57;;;;;;;6.00;4.70;;;;;;;10.42;84.39;97054.64;106842;1263;72609;-35
2023/11/12 01:16:25;;;;;;;5.70;4.90;;;;;;;10.41;84.29;97049.16;106827;1263;68078;-36
2023/11/12 01:18:58;;;;;;;4.20;3.50;;;;;;;10.39;84.48;97045.18;106768;1263;71970;-35
2023/11/12 01:21:26;;;;;;;5.00;3.70;;;;;;;10.36;84.55;97044.77;106998;1261;60428;-35
2023/11/12 01:23:54;;;;;;;5.30;3.40;;;;;;;10.30;84.77;97041.54;106838;1262;59493;-35
2023/11/12 01:26:24;;;;;;;4.70;3.20;;;;;;;10.33;84.65;97040.57;106853;1263;72612;-35
2023/11/12 01:28:52;;;;;;;3.90;3.10;;;;;;;10.37;84.40;97039.48;106920;1263;66605;-35
2023/11/12 01:31:20;;;;;;;3.50;3.00;;;;;;;10.33;84.38;97035.69;106840;1262;72682;-35
2023/11/12 01:33:48;;;;;;;3.70;3.30;;;;;;;10.27;84.72;97035.48;106888;1264;60431;-35
2023/11/12 01:36:15;;;;;;;3.10;2.80;;;;;;;10.23;84.71;97032.30;106832;1266;60280;-35
2023/11/12 01:38:43;;;;;;;2.50;2.10;;;;;;;10.22;84.56;97031.39;106845;1263;73918;-35
2023/11/12 01:41:12;;;;;;;2.40;2.40;;;;;;;10.20;84.49;97031.67;106869;1262;66269;-35
2023/11/12 01:43:41;;;;;;;2.60;2.10;;;;;;;10.09;84.66;97024.79;106881;1262;71932;-35
2023/11/12 01:46:09;;;;;;;5.90;2.10;;;;;;;9.96;85.23;97025.14;106873;1262;60306;-35
2023/11/12 01:48:37;;;;;;;2.60;2.00;;;;;;;9.86;85.67;97026.55;106867;1263;60448;-35
2023/11/12 01:51:04;;;;;;;3.50;2.00;;;;;;;9.83;85.82;97026.05;106827;1263;73905;-35
2023/11/12 01:53:33;;;;;;;2.10;1.90;;;;;;;9.79;85.90;97022.63;106874;1263;66639;-35
2023/11/12 01:56:00;;;;;;;2.30;1.80;;;;;;;9.70;86.34;97021.23;106875;1263;72700;-35
2023/11/12 01:58:28;;;;;;;3.10;2.00;;;;;;;9.59;86.97;97021.55;106837;1263;59290;-35
2023/11/12 02:00:55;;;;;;;4.20;2.40;;;;;;;9.51;87.41;97021.82;106840;1263;60031;-35
2023/11/12 02:03:23;;;;;;;2.70;2.50;;;;;;;9.49;87.53;97019.44;106807;1262;72611;-35
2023/11/12 02:05:51;;;;;;;3.20;2.90;;;;;;;9.47;87.72;97015.39;106850;1264;67779;-35
2023/11/12 02:08:20;;;;;;;3.00;2.70;;;;;;;9.45;88.14;97014.20;106828;1263;72677;-35
2023/11/12 02:10:50;;;;;;;2.10;1.90;;;;;;;9.41;88.47;97013.00;106923;1263;60663;-35
2023/11/12 02:13:18;;;;;;;1.80;1.00;;;;;;;9.41;88.47;97014.54;106843;1268;60351;-35
2023/11/12 02:15:46;;;;;;;1.70;1.10;;;;;;;9.44;88.27;97013.59;106822;1263;72001;-35
2023/11/12 02:18:16;;;;;;;0.80;0.80;;;;;;;9.43;88.42;97009.48;106865;1263;67603;-35
2023/11/12 02:20:45;;;;;;;1.40;0.80;;;;;;;9.39;88.65;97008.56;106841;1263;72720;-35
2023/11/12 02:23:15;;;;;;;1.20;0.60;;;;;;;9.35;88.79;97007.22;106851;1263;61763;-35
2023/11/12 02:25:43;;;;;;;;;;;;;;;9.34;88.51;97002.68;106869;1262;60328;-35
2023/11/12 02:28:17;;;;;;;0.80;0.70;;;;;;;9.32;88.43;97005.63;106872;1262;73322;-35
2023/11/12 02:30:45;;;;;;;0.90;0.90;;;;;;;9.24;88.72;97003.29;106846;1263;66644;-35
2023/11/12 02:33:13;;;;;;;1.10;0.90;;;;;;;9.13;89.08;97007.89;106802;1269;72716;-35
2023/11/12 02:35:42;;;;;;;2.60;0.90;;;;;;;9.10;89.50;97006.56;106712;1263;61755;-35
2023/11/12 02:38:11;;;;;;;1.00;0.90;;;;;;;9.14;89.49;97004.80;106800;1268;60328;-35
2023/11/12 02:40:38;;;;;;;0.80;0.80;;;;;;;9.19;89.30;97006.90;106834;1262;73884;-35
2023/11/12 02:43:07;;;;;;;0.80;0.70;;;;;;;9.13;89.31;97004.89;106858;1263;67688;-35
2023/11/12 02:45:34;;;;;;;2.50;0.90;;;;;;;9.04;89.55;97008.17;106843;1263;72712;-35
2023/11/12 02:48:02;;;;;;;0.70;0.70;;;;;;;8.97;89.60;97001.08;106819;1266;60857;-34
2023/11/12 02:50:31;;;;;;;1.90;0.80;;;;;;;8.96;89.70;97000.47;106888;1262;60281;-35
2023/11/12 02:53:00;;;;;;;0.90;0.70;;;;;;;8.96;89.78;97000.86;106805;1268;72994;-35
2023/11/12 02:55:29;;;;;;;0.90;0.90;;;;;;;8.94;90.15;97001.52;106856;1263;66854;-35
2023/11/12 02:57:57;;;;;;;0.60;0.60;;;;;;;8.90;90.29;97000.64;106918;1264;71399;-35
2023/11/12 03:00:27;;;;;;;2.20;0.70;;;;;;;8.93;90.40;97000.45;106854;1263;60502;-35
2023/11/12 03:03:00;;;;;;;1.10;0.70;;;;;;;8.98;90.31;97000.08;106750;1262;60513;-35
2023/11/12 03:05:29;;;;;;;1.00;0.70;;;;;;;8.96;90.25;96997.55;106910;1262;72967;-35
2023/11/12 03:08:00;;;;;;;1.50;0.50;;;;;;;8.92;90.46;96997.98;106877;1263;67706;-35
2023/11/12 03:10:28;;;;;;;0.70;0.60;;;;;;;8.93;90.45;96993.11;106841;1266;71402;-36
2023/11/12 03:12:56;;;;;;;0.40;0.40;;;;;;;8.97;90.18;96994.21;106880;1263;60444;-35
2023/11/12 03:15:23;;;;;;;0.60;0.50;;;;;;;8.96;90.28;96993.84;106879;1263;60496;-35
2023/11/12 03:17:52;;;;;;;0.90;0.50;;;;;;;8.91;90.40;96993.21;106843;1263;73882;-35
2023/11/12 03:20:20;;;;;;;0.50;0.50;;;;;;;8.90;90.61;96992.99;106875;1264;67753;-35
2023/11/12 03:22:49;;;;;;;0.40;0.30;;;;;;;8.92;90.27;96995.74;106843;1264;71457;-35
2023/11/12 03:25:16;;;;;;;0.20;0.20;;;;;;;8.90;90.19;96994.30;106854;1263;60434;-35
2023/11/12 03:27:44;;;;;;;0.50;0.50;;;;;;;8.84;90.41;96994.08;106863;1263;60446;-35
2023/11/12 03:30:12;;;;;;;0.90;0.40;;;;;;;8.79;90.74;96992.06;106860;1263;73985;-35
2023/11/12 03:32:41;;;;;;;2.80;0.50;;;;;;;8.81;90.60;96990.87;106799;1263;67588;-35
2023/11/12 03:35:09;;;;;;;0.80;0.40;;;;;;;8.82;90.23;96993.32;106847;1263;71715;-35
2023/11/12 03:37:37;;;;;;;0.50;0.50;;;;;;;8.79;90.41;96988.43;106868;1262;60556;-35
2023/11/12 03:40:07;;;;;;;0.50;0.50;;;;;;;8.75;90.52;96989.86;106881;1262;60049;-35
2023/11/12 03:42:35;;;;;;;0.80;0.40;;;;;;;8.74;90.39;96989.02;106906;1263;72660;-35
2023/11/12 03:45:04;;;;;;;0.50;0.50;;;;;;;8.77;90.16;96986.28;106676;1269;67414;-34
2023/11/12 03:47:32;;;;;;;;;;;;;;;8.74;90.25;96981.77;106804;1263;71461;-35
2023/11/12 03:50:01;;;;;;;0.60;0.60;;;;;;;8.65;90.76;96978.48;106790;1267;60712;-35
2023/11/12 03:52:29;;;;;;;1.70;0.60;;;;;;;8.64;90.93;96978.10;106848;1263;60432;-35
2023/11/12 03:54:57;;;;;;;0.50;0.50;;;;;;;8.66;90.84;96984.64;106813;1263;72640;-35
2023/11/12 03:57:24;;;;;;;0.60;0.40;;;;;;;8.69;90.66;96981.52;106785;1263;66806;-35
2023/11/12 03:59:53;;;;;;;0.60;0.60;;;;;;;8.68;90.78;96986.23;106847;1263;72984;-35
2023/11/12 04:02:21;;;;;;;0.60;0.60;;;;;;;8.65;90.83;96984.12;106828;1263;60882;-35
2023/11/12 04:04:49;;;;;;;0.50;0.50;;;;;;;8.62;90.65;96985.55;106710;1263;59254;-35
2023/11/12 04:07:17;;;;;;;1.70;0.60;;;;;;;8.63;90.60;96981.35;106832;1263;73927;-35
2023/11/12 04:09:45;;;;;;;0.70;0.50;;;;;;;8.65;90.64;96986.20;106758;1263;67690;-35
2023/11/12 04:12:13;;;;;;;0.50;0.50;;;;;;;8.60;90.68;96986.34;106886;1267;72637;-35
2023/11/12 04:14:40;;;;;;;0.50;0.50;;;;;;;8.57;90.94;96983.90;107049;1260;61721;-35
2023/11/12 04:17:08;;;;;;;1.40;0.50;;;;;;;8.60;90.90;96981.02;106918;1265;60370;-35
2023/11/12 04:19:35;;;;;;;0.50;0.50;;;;;;;8.64;90.64;96979.27;107116;1260;73899;-35
2023/11/12 04:22:04;;;;;;;0.70;0.60;;;;;;;8.64;90.73;96979.58;106947;1260;67807;-35
2023/11/12 04:24:31;;;;;;;1.70;0.70;;;;;;;8.61;90.95;96981.23;107075;1260;72750;-35
2023/11/12 04:27:00;;;;;;;0.50;0.50;;;;;;;8.61;90.93;96981.61;107145;1266;60532;-35
2023/11/12 04:29:27;;;;;;;0.50;0.50;;;;;;;8.65;90.59;96981.02;107045;1263;60011;-35
2023/11/12 04:31:55;;;;;;;0.70;0.60;;;;;;;8.66;90.38;96979.63;107057;1260;72960;-35
2023/11/12 04:34:22;;;;;;;0.50;0.50;;;;;;;8.64;90.47;96980.04;106947;1265;67762;-35
2023/11/12 04:36:50;;;;;;;0.60;0.60;;;;;;;8.59;90.61;96977.31;107041;1263;72725;-35
2023/11/12 04:39:19;;;;;;;1.00;0.50;;;;;;;8.60;90.60;96982.87;107080;1260;60463;-35
2023/11/12 04:41:46;;;;;;;0.50;0.40;;;;;;;8.61;90.31;96981.69;107066;1260;60416;-35
2023/11/12 04:44:14;;;;;;;0.60;0.60;;;;;;;8.57;90.39;96979.73;107071;1259;73821;-35
2023/11/12 04:46:42;;;;;;;0.50;0.50;;;;;;;8.51;90.52;96983.04;107008;1262;67907;-35
2023/11/12 04:49:09;;;;;;;0.30;0.30;;;;;;;8.49;90.60;96987.08;107032;1260;72501;-35
2023/11/12 04:51:37;;;;;;;0.50;0.50;;;;;;;8.52;90.36;96984.66;107066;1260;61665;-35
2023/11/12 04:54:04;;;;;;;1.20;0.60;;;;;;;8.54;90.42;96986.63;107046;1260;60303;-35
2023/11/12 04:56:32;;;;;;;1.90;0.60;;;;;;;8.52;90.40;96986.73;107036;1264;72558;-35
2023/11/12 04:58:59;;;;;;;0.90;0.50;;;;;;;8.47;90.51;96989.27;107075;1260;67929;-35
2023/11/12 05:01:27;;;;;;;0.80;0.50;;;;;;;8.48;90.60;96987.24;107072;1263;72501;-35
2023/11/12 05:03:55;;;;;;;0.50;0.50;;;;;;;8.52;90.30;96990.13;107075;1263;60461;-34
2023/11/12 05:06:28;;;;;;;0.30;0.30;;;;;;;8.50;90.24;96992.63;107039;1260;60418;-35
2023/11/12 05:08:56;;;;;;;0.50;0.50;;;;;;;8.46;90.51;96993.60;107094;1261;73860;-35
2023/11/12 05:11:24;;;;;;;0.60;0.60;;;;;;;8.45;90.51;96995.06;107063;1260;67903;-35
2023/11/12 05:13:52;;;;;;;0.50;0.50;;;;;;;8.50;90.47;96998.27;107059;1261;71468;-35
2023/11/12 05:16:19;;;;;;;0.40;0.40;;;;;;;8.54;90.46;96999.67;107021;1260;60421;-35
2023/11/12 05:18:47;;;;;;;0.70;0.70;;;;;;;8.53;90.54;97001.08;107067;1261;60325;-35
2023/11/12 05:21:15;;;;;;;0.80;0.50;;;;;;;8.49;90.42;97006.36;107118;1260;73972;-35
2023/11/12 05:23:43;;;;;;;2.40;0.50;;;;;;;8.50;90.41;97007.52;107012;1261;67605;-35
2023/11/12 05:26:10;;;;;;;0.90;0.60;;;;;;;8.54;90.19;97004.68;106940;1260;72684;-35
2023/11/12 05:28:38;;;;;;;1.10;1.00;;;;;;;8.51;89.97;97005.42;107024;1260;60354;-35
2023/11/12 05:31:05;;;;;;;1.40;0.90;;;;;;;8.45;90.24;97009.72;107027;1260;60319;-35
2023/11/12 05:33:33;;;;;;;1.00;0.90;;;;;;;8.43;90.37;97015.85;106937;1260;73879;-35
2023/11/12 05:36:01;;;;;;;0.80;0.70;;;;;;;8.47;90.29;97012.95;107008;1260;67579;-35
2023/11/12 05:38:29;;;;;;;1.10;1.00;;;;;;;8.47;90.11;97014.09;106953;1260;72711;-35
2023/11/12 05:40:56;;;;;;;0.80;0.70;;;;;;;8.44;90.33;97015.52;107066;1260;60486;-35
2023/11/12 05:43:24;;;;;;;0.60;0.50;;;;;;;8.38;90.31;97018.45;107033;1260;60534;-35
2023/11/12 05:45:52;;;;;;;1.70;0.70;;;;;;;8.37;90.33;97015.60;107022;1258;73854;-35
2023/11/12 05:48:19;;;;;;;0.50;0.50;;;;;;;8.38;90.27;97022.98;106997;1261;67920;-35
2023/11/12 05:50:48;;;;;;;0.50;0.50;;;;;;;8.32;90.45;97022.43;107002;1260;71434;-35
2023/11/12 05:53:16;;;;;;;0.70;0.50;;;;;;;8.26;90.91;97023.15;107010;1260;60498;-35
2023/11/12 05:55:43;;;;;;;0.50;0.50;;;;;;;8.27;90.96;97021.54;107045;1260;60352;-35
2023/11/12 05:58:11;;;;;;;0.80;0.50;;;;;;;8.32;90.80;97022.36;107090;1263;73837;-35
2023/11/12 06:00:39;;;;;;;0.60;0.60;;;;;;;8.31;90.79;97024.45;107075;1260;66346;-35
2023/11/12 06:03:06;;;;;;;0.60;0.60;;;;;;;8.27;90.95;97028.77;107035;1260;72696;-35
2023/11/12 06:05:34;;;;;;;0.40;0.40;;;;;;;8.24;91.08;97031.34;107033;1260;62130;-35
2023/11/12 06:08:03;;;;;;;0.50;0.50;;;;;;;8.29;91.06;97030.39;107052;1262;60093;-35
2023/11/12 06:10:31;;;;;;;0.70;0.60;;;;;;;8.37;90.93;97034.96;107120;1257;73851;-35
2023/11/12 06:12:59;;;;;;;0.60;0.60;;;;;;;8.37;90.66;97038.89;107100;1260;67760;-35
2023/11/12 06:15:27;;;;;;;1.10;0.60;;;;;;;8.31;90.53;97036.48;107043;1260;72703;-35
2023/11/12 06:17:54;;;;;;;0.50;0.40;;;;;;;8.30;90.60;97039.79;107066;1261;61722;-34
2023/11/12 06:20:25;;;;;;;0.90;0.50;;;;;;;8.36;90.48;97039.59;107046;1257;60040;-35
2023/11/12 06:22:53;;;;;;;0.60;0.60;;;;;;;8.37;90.47;97041.82;107063;1257;72613;-35
2023/11/12 06:25:22;;;;;;;0.60;0.60;;;;;;;8.33;90.35;97041.78;107074;1262;66424;-34
2023/11/12 06:27:50;;;;;;;0.30;0.30;;;;;;;8.31;90.26;97040.95;107100;1257;72668;-35
2023/11/12 06:30:18;;;;;;;0.90;0.50;;;;;;;8.34;89.96;97044.46;107002;1262;61640;-36
2023/11/12 06:32:48;;;;;;;0.60;0.60;;;;;;;8.36;89.90;97048.00;107040;1258;60361;-36
2023/11/12 06:35:16;;;;;;;2.30;0.80;;;;;;;8.31;89.81;97049.05;107012;1260;73940;-36
2023/11/12 06:37:44;;;;;;;0.60;0.60;;;;;;;8.27;90.15;97054.06;107055;1258;66513;-36
2023/11/12 06:40:12;;;;;;;1.20;0.90;;;;;;;8.26;90.27;97053.70;107041;1262;71513;-36
2023/11/12 06:42:41;;;;;;;1.60;0.60;;;;;;;8.29;89.89;97052.83;107060;1263;61690;-36
2023/11/12 06:45:09;;;;;;;0.70;0.70;;;;;;;8.31;89.95;97054.38;107106;1257;60611;-36
2023/11/12 06:47:37;;;;;;;0.70;0.70;;;;;;;8.28;89.99;97057.84;107048;1257;73876;-36
2023/11/12 06:50:06;;;;;;;1.70;0.70;;;;;;;8.25;90.09;97058.64;107042;1258;66926;-36
2023/11/12 06:52:34;;;;;;;0.60;0.60;;;;;;;8.27;89.97;97057.46;107110;1260;71101;-36
2023/11/12 06:55:03;;;;;;;0.70;0.70;;;;;;;8.32;89.82;97060.70;107029;1257;60881;-36
2023/11/12 06:57:33;;;;;;;1.40;0.80;;;;;;;8.32;89.73;97063.40;107059;1262;61189;-36
2023/11/12 07:00:01;;;;;;;0.80;0.70;;;;;;;8.27;89.80;97062.25;107102;1262;72890;-36
2023/11/12 07:02:28;;;;;;;0.70;0.60;;;;;;;8.25;89.78;97065.42;107040;1258;67743;-36
2023/11/12 07:04:56;;;;;;;1.00;0.70;;;;;;;8.29;89.67;97069.11;107086;1262;72537;-36
2023/11/12 07:07:24;;;;;;;0.70;0.60;;;;;;;8.30;89.41;97069.02;107012;1262;60946;-36
2023/11/12 07:09:52;;;;;;;1.80;0.80;;;;;;;8.27;89.62;97067.41;107083;1262;59607;-36
2023/11/12 07:12:19;;;;;;;0.50;0.50;;;;;;;8.21;89.67;97069.92;107056;1257;73824;-36
2023/11/12 07:14:47;;;;;;;0.80;0.60;;;;;;;8.21;89.56;97072.94;107023;1257;66665;-36
2023/11/12 07:17:15;;;;;;;0.50;0.50;;;;;;;8.24;89.60;97077.23;107165;1263;72720;-36
2023/11/12 07:19:43;;;;;;;0.80;0.70;;;;;;;8.22;89.73;97074.23;107077;1261;60520;-36
2023/11/12 07:22:11;;;;;;;0.80;0.70;;;;;;;8.17;89.79;97074.91;107071;1258;60290;-36
2023/11/12 07:24:38;;;;;;;2.10;0.60;;;;;;;8.14;89.95;97078.16;107019;1260;73851;-36
2023/11/12 07:27:06;;;;;;;0.50;0.50;;;;;;;8.18;89.88;97080.14;107029;1263;68227;-36
2023/11/12 07:29:34;;;;;;;0.80;0.70;;;;;;;8.21;89.72;97082.66;107060;1261;72706;-36
2023/11/12 07:32:02;;;;;;;0.70;0.60;;;;;;;8.18;89.86;97078.98;107040;1263;60080;-36
2023/11/12 07:34:30;;;;;;;1.60;0.60;;;;;;;8.14;89.92;97082.25;107025;1261;60479;-36
2023/11/12 07:36:57;;;;;;;0.60;0.50;;;;;;;8.15;89.76;97085.02;107042;1260;72605;-36
2023/11/12 07:39:25;;;;;;;0.60;0.60;;;;;;;8.19;89.66;97083.36;106996;1264;67595;-36
2023/11/12 07:41:53;;;;;;;1.50;0.50;;;;;;;8.18;89.74;97083.84;107022;1263;72725;-36
2023/11/12 07:44:23;;;;;;;2.70;0.60;;;;;;;8.14;89.97;97085.64;107058;1260;60708;-36
2023/11/12 07:46:51;;;;;;;0.50;0.50;;;;;;;8.13;89.67;97083.95;107018;1262;62102;-36
2023/11/12 07:49:19;;;;;;;0.90;0.50;;;;;;;8.16;89.37;97088.33;107003;1261;73869;-36
2023/11/12 07:51:48;;;;;;;0.70;0.70;;;;;;;8.15;89.41;97091.88;106943;1260;66630;-36
2023/11/12 07:54:17;;;;;;;0.80;0.70;;;;;;;8.13;89.73;97096.75;106926;1264;72690;-36
2023/11/12 07:56:44;;;;;;;1.70;0.50;;;;;;;8.11;89.82;97101.55;106952;1263;62177;-36
2023/11/12 07:59:12;;;;;;;0.90;0.50;;;;;;;8.14;89.60;97101.21;106911;1261;60399;-36
2023/11/12 08:01:41;;;;;;;0.80;0.80;;;;;;;8.19;89.61;97102.80;106970;1264;72306;-36
2023/11/12 08:04:09;;;;;;;0.60;0.60;;;;;;;8.18;89.37;97104.34;107011;1263;67659;-36
2023/11/12 08:06:37;;;;;;;0.60;0.50;;;;;;;8.15;89.32;97108.00;107007;1263;72747;-36
2023/11/12 08:09:06;;;;;;;0.50;0.50;;;;;;;8.13;89.08;97111.10;106913;1259;61897;-35
2023/11/12 08:11:40;;;;;;;0.50;0.50;;;;;;;8.15;88.82;97113.16;106947;1261;60443;-35
2023/11/12 08:14:08;;;;;;;1.60;0.80;;;;;;;8.17;88.70;97115.02;107293;1260;74276;-35
2023/11/12 08:16:37;;;;;;;1.50;0.60;;;;;;;8.14;89.06;97119.73;107336;1260;67610;-35
2023/11/12 08:19:05;;;;;;;1.40;0.60;;;;;;;8.11;89.33;97121.67;107253;1262;72697;-35
2023/11/12 08:21:33;;;;;;;0.60;0.60;;;;;;;8.13;89.46;97122.19;107266;1260;60492;-35
2023/11/12 08:24:01;;;;;;;0.60;0.60;;;;;;;8.17;89.22;97123.27;107281;1255;60565;-35
2023/11/12 08:26:29;;;;;;;0.60;0.60;;;;;;;8.15;89.28;97124.57;107269;1260;75073;-35
2023/11/12 08:28:57;;;;;;;1.10;0.70;;;;;;;8.11;89.43;97128.00;107343;1260;67925;-35
2023/11/12 08:31:25;;;;;;;0.80;0.70;;;;;;;8.12;89.58;97132.92;107257;1260;72775;-35
2023/11/12 08:33:53;;;;;;;0.80;0.70;;;;;;;8.17;89.25;97130.42;107466;1254;61705;-34
2023/11/12 08:36:21;;;;;;;1.20;0.70;;;;;;;8.20;89.05;97134.25;107382;1255;59994;-35
2023/11/12 08:38:48;;;;;;;2.20;0.70;;;;;;;8.18;89.19;97136.58;107510;1254;73925;-35
2023/11/12 08:41:16;;;;;;;0.80;0.70;;;;;;;8.16;89.35;97135.45;107397;1254;66325;-35
2023/11/12 08:43:45;;;;;;;1.30;0.90;;;;;;;8.19;89.11;97140.20;107381;1258;71364;-35
2023/11/12 08:46:15;;;;;;;1.30;0.90;;;;;;;8.23;88.92;97141.23;107421;1258;60406;-35
2023/11/12 08:48:43;;;;;;;1.50;0.90;;;;;;;8.24;89.28;97141.31;107151;1254;373171;-35
2023/11/12 08:52:43;;;;;;;0.90;0.70;;;;;;;8.27;89.54;97139.60;104237;1292;600565;-35
2023/11/12 08:55:11;;;;;;;0.70;0.70;;;;;;;8.31;89.32;97140.91;106618;1266;60398;-35
2023/11/12 08:57:41;;;;;;;1.00;0.80;;;;;;;8.36;89.09;97139.10;106666;1269;59136;-35
2023/11/12 09:00:09;;;;;;;1.00;0.70;;;;;;;8.38;89.23;97140.61;106718;1266;72246;-35
2023/11/12 09:02:37;;;;;;;1.00;0.80;;;;;;;8.39;89.61;97142.23;106636;1266;67560;-35
2023/11/12 09:05:06;;;;;;;1.20;0.90;;;;;;;8.41;88.96;97144.69;106669;1269;72691;-35
2023/11/12 09:07:34;;;;;;;1.00;0.80;;;;;;;8.46;88.57;97148.42;106705;1263;60828;-35
2023/11/12 09:10:04;;;;;;;1.10;0.90;;;;;;;8.49;88.59;97155.42;106874;1263;59291;-35
2023/11/12 09:12:32;;;;;;;1.40;1.00;;;;;;;8.46;88.74;97155.21;106844;1267;72262;-35
2023/11/12 09:15:00;;;;;;;1.90;1.00;;;;;;;8.46;89.12;97154.91;106873;1263;67777;-35
2023/11/12 09:17:28;;;;;;;0.70;0.70;;;;;;;8.52;88.91;97159.71;106896;1262;72692;-35
2023/11/12 09:19:56;;;;;;;0.80;0.70;;;;;;;8.56;88.48;97159.83;106865;1263;60158;-35
2023/11/12 09:22:24;;;;;;;1.10;0.60;;;;;;;8.55;88.33;97162.77;106847;1264;59234;-35
2023/11/12 09:24:51;;;;;;;0.80;0.60;;;;;;;8.52;87.87;97163.64;106909;1263;73053;-35
2023/11/12 09:27:35;;;;;;;1.40;0.60;;;;;;;8.49;87.04;97169.38;106863;1263;67910;-35
2023/11/12 09:30:04;;;;;;;2.10;0.60;;;;;;;8.53;87.03;97169.42;106877;1263;72735;-35
2023/11/12 09:32:32;;;;;;;0.80;0.70;;;;;;;8.56;87.14;97171.71;107318;1256;60234;-35
2023/11/12 09:35:00;;;;;;;3.20;0.80;;;;;;;8.56;87.14;97173.34;107312;1256;60014;-35
2023/11/12 09:37:28;;;;;;;1.10;0.80;;;;;;;8.53;87.26;97173.44;107298;1256;73244;-35
2023/11/12 09:39:56;;;;;;;0.70;0.60;;;;;;;8.55;86.90;97172.89;107313;1256;67777;-35
2023/11/12 09:42:25;;;;;;;1.10;0.80;;;;;;;8.57;86.32;97177.33;107298;1257;72716;-35
2023/11/12 09:44:54;;;;;;;1.40;1.00;;;;;;;8.56;86.68;97179.82;107267;1256;60123;-35
2023/11/12 09:47:40;;;;;;;1.10;0.70;;;;;;;8.52;86.57;97180.32;107305;1256;60050;-35
2023/11/12 09:50:10;;;;;;;1.60;1.00;;;;;;;8.52;86.16;97182.79;107282;1257;73609;-35
2023/11/12 09:52:38;;;;;;;;;;;;;;;8.53;86.19;97182.00;107378;1259;67514;-35
2023/11/12 09:55:06;;;;;;;1.80;1.10;;;;;;;8.51;86.39;97186.65;107229;1256;72701;-35
2023/11/12 09:57:34;;;;;;;3.60;1.20;;;;;;;8.44;86.04;97182.84;107486;1257;59616;-35
2023/11/12 10:00:03;;;;;;;1.20;1.00;;;;;;;8.39;86.05;97184.66;107304;1256;60059;-35
2023/11/12 10:02:35;;;;;;;0.70;0.70;;;;;;;8.39;85.74;97186.12;107268;1257;72715;-35
2023/11/12 10:05:10;;;;;;;2.00;1.00;;;;;;;8.38;85.51;97185.83;107387;1256;67935;-35
2023/11/12 10:07:38;;;;;;;1.20;0.90;;;;;;;8.33;85.50;97187.95;107418;1259;71882;-35
2023/11/12 10:10:26;;;;;;;1.00;0.90;;;;;;;8.29;85.77;97193.51;107422;1256;62239;-35
2023/11/12 10:12:54;;;;;;;1.00;0.90;;;;;;;8.30;85.62;97191.51;107441;1259;59532;-35
2023/11/12 10:15:26;;;;;;;2.10;0.80;;;;;;;8.35;85.63;97192.95;107366;1257;72461;-35
2023/11/12 10:17:55;;;;;;;3.00;0.80;;;;;;;8.36;86.09;97195.73;107462;1255;68413;-35
2023/11/12 10:20:30;;;;;;;1.30;0.70;;;;;;;8.34;86.11;97196.95;107375;1256;72275;-35
2023/11/12 10:22:57;;;;;;;0.60;0.60;;;;;;;8.36;86.30;97203.03;107362;1256;63726;-35
2023/11/12 10:25:42;;;;;;;0.70;0.70;;;;;;;8.43;85.68;97198.29;107384;1256;60170;-35
2023/11/12 10:28:12;;;;;;;1.30;0.70;;;;;;;8.47;84.85;97205.42;107386;1255;71934;-35
2023/11/12 10:30:40;;;;;;;0.90;0.80;;;;;;;8.46;84.65;97205.52;107255;1256;68052;-35
2023/11/12 10:33:19;;;;;;;1.00;0.90;;;;;;;8.45;84.57;97208.69;107427;1256;74817;-35
2023/11/12 10:35:47;;;;;;;0.80;0.80;;;;;;;8.49;84.09;97216.05;107428;1255;61686;-35
2023/11/12 10:38:17;;;;;;;0.90;0.90;;;;;;;8.51;83.84;97213.04;107377;1258;59499;-35
2023/11/12 10:40:56;;;;;;;0.80;0.70;;;;;;;8.47;83.65;97220.40;107423;1255;71895;-35
2023/11/12 10:43:24;;;;;;;2.50;0.80;;;;;;;8.42;82.96;97222.77;107452;1256;66837;-35
2023/11/12 10:45:58;;;;;;;1.00;0.90;;;;;;;8.45;83.58;97227.13;107370;1256;72719;-35
2023/11/12 10:48:31;;;;;;;0.90;0.90;;;;;;;8.47;83.71;97227.55;107443;1256;59628;-35
2023/11/12 10:51:01;;;;;;;1.10;1.00;;;;;;;8.43;84.10;97234.39;107473;1255;59587;-36
2023/11/12 10:53:29;;;;;;;0.50;0.50;;;;;;;8.38;84.46;97240.45;107328;1257;73066;-35
2023/11/12 10:56:00;;;;;;;1.30;0.80;;;;;;;8.40;84.26;97239.50;107414;1257;67885;-35
2023/11/12 10:58:31;;;;;;;1.20;0.80;;;;;;;8.43;84.34;97243.79;107439;1256;71432;-35
2023/11/12 11:01:00;;;;;;;0.70;0.70;;;;;;;8.40;83.14;97247.05;107282;1260;59285;-35
2023/11/12 11:03:32;;;;;;;1.90;0.80;;;;;;;8.31;81.76;97248.11;107415;1256;60670;-35
2023/11/12 11:06:02;;;;;;;1.30;0.70;;;;;;;8.25;82.08;97250.52;107402;1256;73046;-36
2023/11/12 11:08:30;;;;;;;;;;;;;;;8.26;81.98;97253.06;107177;1256;67539;-35
2023/11/12 11:10:59;;;;;;;0.80;0.80;;;;;;;8.27;82.06;97257.85;107232;1256;72690;-35
2023/11/12 11:13:27;;;;;;;1.00;0.70;;;;;;;8.22;81.92;97257.02;107214;1256;59323;-35
2023/11/12 11:15:58;;;;;;;0.80;0.80;;;;;;;8.18;82.48;97262.66;107182;1257;60015;-35
2023/11/12 11:18:35;;;;;;;2.60;0.80;;;;;;;8.16;82.40;97268.38;107369;1259;72988;-35
2023/11/12 11:21:04;;;;;;;1.40;0.70;;;;;;;8.21;82.81;97271.13;107428;1256;66319;-35
2023/11/12 11:23:47;;;;;;;1.50;1.00;;;;;;;8.24;82.93;97282.14;107418;1255;71356;-35
2023/11/12 11:26:24;;;;;;;1.10;1.00;;;;;;;8.18;82.42;97285.42;107408;1256;60526;-35
2023/11/12 11:29:13;;;;;;;1.00;0.90;;;;;;;8.12;82.91;97286.06;107400;1256;61036;-35
2023/11/12 11:31:47;;;;;;;0.90;0.90;;;;;;;8.13;83.32;97288.75;107301;1256;70510;-35
2023/11/12 11:34:15;;;;;;;1.10;1.00;;;;;;;8.16;83.84;97295.61;107230;1256;67784;-35
2023/11/12 11:37:01;;;;;;;1.50;1.30;;;;;;;8.16;84.02;97295.61;107092;1261;72793;-35
2023/11/12 11:39:29;;;;;;;0.80;0.60;;;;;;;8.11;83.55;97293.16;107240;1256;59617;-35
2023/11/12 11:41:58;;;;;;;0.90;0.90;;;;;;;8.10;83.07;97296.48;107267;1256;60120;-35